sensor_id;sensor_type;location;lat;lon;timestamp;P1;durP1;ratioP1;P2;durP2;ratioP2
1777;SDS011;71547;50.146;8.174;2023-12-04T00:00:04;22.55;;;13.05;;
1777;SDS011;71547;50.146;8.174;2023-12-04T00:02:33;20.50;;;11.85;;
1777;SDS011;71547;50.146;8.174;2023-12-04T00:05:01;22.15;;;12.10;;
1777;SDS011;71547;50.146;8.174;2023-12-04T00:07:28;19.60;;;11.88;;
1777;SDS011;71547;50.146;8.174;2023-12-04T00:09:55;21.25;;;13.40;;
1777;SDS011;71547;50.146;8.174;2023-12-04T00:12:24;20.42;;;12.93;;
1777;SDS011;71547;50.146;8.174;2023-12-04T00:14:51;21.15;;;12.63;;
1777;SDS011;71547;50.146;8.174;2023-12-04T00:17:18;18.00;;;11.70;;
1777;SDS011;71547;50.146;8.174;2023-12-04T00:19:45;26.63;;;15.43;;
1777;SDS011;71547;50.146;8.174;2023-12-04T00:22:12;20.98;;;13.70;;
1777;SDS011;71547;50.146;8.174;2023-12-04T00:24:39;21.45;;;12.63;;
1777;SDS011;71547;50.146;8.174;2023-12-04T00:27:06;18.10;;;11.73;;
1777;SDS011;71547;50.146;8.174;2023-12-04T00:29:35;17.25;;;11.88;;
1777;SDS011;71547;50.146;8.174;2023-12-04T00:32:02;18.77;;;11.27;;
1777;SDS011;71547;50.146;8.174;2023-12-04T00:34:30;19.17;;;12.32;;
1777;SDS011;71547;50.146;8.174;2023-12-04T00:36:58;19.92;;;12.18;;
1777;SDS011;71547;50.146;8.174;2023-12-04T00:39:25;18.70;;;11.57;;
1777;SDS011;71547;50.146;8.174;2023-12-04T00:41:52;21.58;;;11.40;;
1777;SDS011;71547;50.146;8.174;2023-12-04T00:44:19;23.35;;;11.65;;
1777;SDS011;71547;50.146;8.174;2023-12-04T00:46:47;18.88;;;11.38;;
1777;SDS011;71547;50.146;8.174;2023-12-04T00:49:14;22.58;;;12.70;;
1777;SDS011;71547;50.146;8.174;2023-12-04T00:51:42;21.20;;;12.38;;
1777;SDS011;71547;50.146;8.174;2023-12-04T00:54:09;23.13;;;12.52;;
1777;SDS011;71547;50.146;8.174;2023-12-04T00:56:37;16.88;;;10.85;;
1777;SDS011;71547;50.146;8.174;2023-12-04T00:59:05;21.33;;;12.20;;
1777;SDS011;71547;50.146;8.174;2023-12-04T01:01:35;18.30;;;11.18;;
1777;SDS011;71547;50.146;8.174;2023-12-04T01:04:03;24.27;;;12.60;;
1777;SDS011;71547;50.146;8.174;2023-12-04T01:06:30;18.70;;;11.93;;
1777;SDS011;71547;50.146;8.174;2023-12-04T01:08:58;19.05;;;11.70;;
1777;SDS011;71547;50.146;8.174;2023-12-04T01:11:27;19.15;;;11.80;;
1777;SDS011;71547;50.146;8.174;2023-12-04T01:13:54;22.20;;;11.77;;
1777;SDS011;71547;50.146;8.174;2023-12-04T01:16:23;20.00;;;12.00;;
1777;SDS011;71547;50.146;8.174;2023-12-04T01:18:51;15.85;;;10.90;;
1777;SDS011;71547;50.146;8.174;2023-12-04T01:21:19;18.98;;;11.77;;
1777;SDS011;71547;50.146;8.174;2023-12-04T01:23:46;19.70;;;10.80;;
1777;SDS011;71547;50.146;8.174;2023-12-04T01:26:13;14.90;;;10.38;;
1777;SDS011;71547;50.146;8.174;2023-12-04T01:28:40;19.45;;;11.95;;
1777;SDS011;71547;50.146;8.174;2023-12-04T01:31:07;21.23;;;11.65;;
1777;SDS011;71547;50.146;8.174;2023-12-04T01:33:34;17.88;;;11.18;;
1777;SDS011;71547;50.146;8.174;2023-12-04T01:36:02;17.63;;;11.48;;
1777;SDS011;71547;50.146;8.174;2023-12-04T01:38:31;21.50;;;10.88;;
1777;SDS011;71547;50.146;8.174;2023-12-04T01:40:58;21.17;;;11.88;;
1777;SDS011;71547;50.146;8.174;2023-12-04T01:43:25;14.13;;;9.27;;
1777;SDS011;71547;50.146;8.174;2023-12-04T01:45:54;15.07;;;9.32;;
1777;SDS011;71547;50.146;8.174;2023-12-04T01:48:22;20.08;;;11.95;;
1777;SDS011;71547;50.146;8.174;2023-12-04T01:50:50;15.85;;;9.95;;
1777;SDS011;71547;50.146;8.174;2023-12-04T01:53:18;19.95;;;10.43;;
1777;SDS011;71547;50.146;8.174;2023-12-04T01:55:46;16.40;;;10.65;;
1777;SDS011;71547;50.146;8.174;2023-12-04T01:58:13;18.55;;;9.50;;
1777;SDS011;71547;50.146;8.174;2023-12-04T02:00:40;15.18;;;10.60;;
1777;SDS011;71547;50.146;8.174;2023-12-04T02:03:08;16.27;;;9.40;;
1777;SDS011;71547;50.146;8.174;2023-12-04T02:05:36;14.38;;;8.80;;
1777;SDS011;71547;50.146;8.174;2023-12-04T02:08:03;19.17;;;10.45;;
1777;SDS011;71547;50.146;8.174;2023-12-04T02:10:31;16.45;;;9.73;;
1777;SDS011;71547;50.146;8.174;2023-12-04T02:12:59;13.45;;;8.73;;
1777;SDS011;71547;50.146;8.174;2023-12-04T02:15:26;16.00;;;10.20;;
1777;SDS011;71547;50.146;8.174;2023-12-04T02:17:54;13.80;;;8.90;;
1777;SDS011;71547;50.146;8.174;2023-12-04T02:20:27;19.42;;;10.27;;
1777;SDS011;71547;50.146;8.174;2023-12-04T02:22:58;17.83;;;9.90;;
1777;SDS011;71547;50.146;8.174;2023-12-04T02:25:27;18.77;;;10.70;;
1777;SDS011;71547;50.146;8.174;2023-12-04T02:28:04;20.17;;;10.85;;
1777;SDS011;71547;50.146;8.174;2023-12-04T02:30:34;16.02;;;10.25;;
1777;SDS011;71547;50.146;8.174;2023-12-04T02:33:04;15.20;;;10.10;;
1777;SDS011;71547;50.146;8.174;2023-12-04T02:35:33;17.80;;;10.90;;
1777;SDS011;71547;50.146;8.174;2023-12-04T02:38:01;19.52;;;9.77;;
1777;SDS011;71547;50.146;8.174;2023-12-04T02:40:31;15.35;;;10.50;;
1777;SDS011;71547;50.146;8.174;2023-12-04T02:42:58;20.20;;;10.95;;
1777;SDS011;71547;50.146;8.174;2023-12-04T02:45:25;15.82;;;9.65;;
1777;SDS011;71547;50.146;8.174;2023-12-04T02:47:52;16.20;;;10.38;;
1777;SDS011;71547;50.146;8.174;2023-12-04T02:50:19;17.20;;;10.80;;
1777;SDS011;71547;50.146;8.174;2023-12-04T02:52:46;20.90;;;11.77;;
1777;SDS011;71547;50.146;8.174;2023-12-04T02:55:13;19.98;;;10.52;;
1777;SDS011;71547;50.146;8.174;2023-12-04T02:57:42;18.77;;;11.05;;
1777;SDS011;71547;50.146;8.174;2023-12-04T03:00:10;16.70;;;10.25;;
1777;SDS011;71547;50.146;8.174;2023-12-04T03:02:37;14.07;;;9.30;;
1777;SDS011;71547;50.146;8.174;2023-12-04T03:05:05;23.10;;;10.98;;
1777;SDS011;71547;50.146;8.174;2023-12-04T03:07:32;14.68;;;10.02;;
1777;SDS011;71547;50.146;8.174;2023-12-04T03:09:59;15.27;;;10.32;;
1777;SDS011;71547;50.146;8.174;2023-12-04T03:12:26;16.52;;;9.65;;
1777;SDS011;71547;50.146;8.174;2023-12-04T03:14:55;15.32;;;9.27;;
1777;SDS011;71547;50.146;8.174;2023-12-04T03:17:22;14.65;;;9.18;;
1777;SDS011;71547;50.146;8.174;2023-12-04T03:19:49;17.27;;;10.32;;
1777;SDS011;71547;50.146;8.174;2023-12-04T03:22:17;18.08;;;9.50;;
1777;SDS011;71547;50.146;8.174;2023-12-04T03:24:44;16.15;;;10.40;;
1777;SDS011;71547;50.146;8.174;2023-12-04T03:27:12;15.65;;;10.13;;
1777;SDS011;71547;50.146;8.174;2023-12-04T03:29:39;13.40;;;9.32;;
1777;SDS011;71547;50.146;8.174;2023-12-04T03:32:07;17.35;;;10.20;;
1777;SDS011;71547;50.146;8.174;2023-12-04T03:34:34;18.13;;;9.57;;
1777;SDS011;71547;50.146;8.174;2023-12-04T03:37:01;18.00;;;9.82;;
1777;SDS011;71547;50.146;8.174;2023-12-04T03:39:29;13.20;;;9.30;;
1777;SDS011;71547;50.146;8.174;2023-12-04T03:41:56;15.30;;;9.40;;
1777;SDS011;71547;50.146;8.174;2023-12-04T03:44:24;16.00;;;9.65;;
1777;SDS011;71547;50.146;8.174;2023-12-04T03:46:51;15.77;;;9.05;;
1777;SDS011;71547;50.146;8.174;2023-12-04T03:49:20;16.25;;;9.98;;
1777;SDS011;71547;50.146;8.174;2023-12-04T03:51:47;17.60;;;10.15;;
1777;SDS011;71547;50.146;8.174;2023-12-04T03:54:14;16.05;;;9.13;;
1777;SDS011;71547;50.146;8.174;2023-12-04T03:56:41;16.38;;;8.98;;
1777;SDS011;71547;50.146;8.174;2023-12-04T03:59:08;16.63;;;9.70;;
1777;SDS011;71547;50.146;8.174;2023-12-04T04:01:36;17.08;;;10.88;;
1777;SDS011;71547;50.146;8.174;2023-12-04T04:04:03;17.15;;;9.70;;
1777;SDS011;71547;50.146;8.174;2023-12-04T04:06:32;14.57;;;9.02;;
1777;SDS011;71547;50.146;8.174;2023-12-04T04:08:59;13.60;;;9.25;;
1777;SDS011;71547;50.146;8.174;2023-12-04T04:11:26;18.15;;;10.60;;
1777;SDS011;71547;50.146;8.174;2023-12-04T04:13:53;16.60;;;9.90;;
1777;SDS011;71547;50.146;8.174;2023-12-04T04:16:20;13.98;;;9.98;;
1777;SDS011;71547;50.146;8.174;2023-12-04T04:18:47;15.85;;;9.77;;
1777;SDS011;71547;50.146;8.174;2023-12-04T04:21:14;16.85;;;9.55;;
1777;SDS011;71547;50.146;8.174;2023-12-04T04:23:43;19.80;;;10.55;;
1777;SDS011;71547;50.146;8.174;2023-12-04T04:26:10;17.38;;;9.77;;
1777;SDS011;71547;50.146;8.174;2023-12-04T04:28:37;17.35;;;10.55;;
1777;SDS011;71547;50.146;8.174;2023-12-04T04:31:04;18.27;;;9.80;;
1777;SDS011;71547;50.146;8.174;2023-12-04T04:33:31;18.65;;;11.10;;
1777;SDS011;71547;50.146;8.174;2023-12-04T04:35:58;19.75;;;11.30;;
1777;SDS011;71547;50.146;8.174;2023-12-04T04:38:26;15.30;;;9.38;;
1777;SDS011;71547;50.146;8.174;2023-12-04T04:40:54;17.83;;;10.32;;
1777;SDS011;71547;50.146;8.174;2023-12-04T04:43:21;20.88;;;10.70;;
1777;SDS011;71547;50.146;8.174;2023-12-04T04:45:48;15.57;;;10.30;;
1777;SDS011;71547;50.146;8.174;2023-12-04T04:48:15;15.48;;;9.68;;
1777;SDS011;71547;50.146;8.174;2023-12-04T04:50:42;17.95;;;10.00;;
1777;SDS011;71547;50.146;8.174;2023-12-04T04:53:11;15.20;;;9.82;;
1777;SDS011;71547;50.146;8.174;2023-12-04T04:55:38;16.05;;;9.23;;
1777;SDS011;71547;50.146;8.174;2023-12-04T04:58:16;12.93;;;8.02;;
1777;SDS011;71547;50.146;8.174;2023-12-04T05:00:43;19.00;;;9.52;;
1777;SDS011;71547;50.146;8.174;2023-12-04T05:03:11;14.48;;;8.88;;
1777;SDS011;71547;50.146;8.174;2023-12-04T05:05:38;14.75;;;9.60;;
1777;SDS011;71547;50.146;8.174;2023-12-04T05:08:05;15.57;;;8.35;;
1777;SDS011;71547;50.146;8.174;2023-12-04T05:10:32;15.98;;;9.80;;
1777;SDS011;71547;50.146;8.174;2023-12-04T05:12:59;15.75;;;8.52;;
1777;SDS011;71547;50.146;8.174;2023-12-04T05:15:28;17.58;;;9.88;;
1777;SDS011;71547;50.146;8.174;2023-12-04T05:17:55;19.52;;;10.45;;
1777;SDS011;71547;50.146;8.174;2023-12-04T05:20:22;15.38;;;9.82;;
1777;SDS011;71547;50.146;8.174;2023-12-04T05:22:49;13.43;;;7.80;;
1777;SDS011;71547;50.146;8.174;2023-12-04T05:25:16;14.63;;;8.98;;
1777;SDS011;71547;50.146;8.174;2023-12-04T05:27:43;14.07;;;9.10;;
1777;SDS011;71547;50.146;8.174;2023-12-04T05:30:14;14.70;;;8.65;;
1777;SDS011;71547;50.146;8.174;2023-12-04T05:32:42;17.55;;;8.75;;
1777;SDS011;71547;50.146;8.174;2023-12-04T05:35:10;13.50;;;8.73;;
1777;SDS011;71547;50.146;8.174;2023-12-04T05:37:37;11.77;;;8.07;;
1777;SDS011;71547;50.146;8.174;2023-12-04T05:40:04;14.57;;;8.60;;
1777;SDS011;71547;50.146;8.174;2023-12-04T05:42:34;17.40;;;9.30;;
1777;SDS011;71547;50.146;8.174;2023-12-04T05:45:01;16.10;;;8.38;;
1777;SDS011;71547;50.146;8.174;2023-12-04T05:47:29;14.02;;;8.35;;
1777;SDS011;71547;50.146;8.174;2023-12-04T05:49:57;14.38;;;8.88;;
1777;SDS011;71547;50.146;8.174;2023-12-04T05:52:25;14.52;;;8.05;;
1777;SDS011;71547;50.146;8.174;2023-12-04T05:54:52;12.27;;;8.20;;
1777;SDS011;71547;50.146;8.174;2023-12-04T05:57:19;10.48;;;6.90;;
1777;SDS011;71547;50.146;8.174;2023-12-04T05:59:46;13.73;;;8.10;;
1777;SDS011;71547;50.146;8.174;2023-12-04T06:02:13;12.50;;;8.10;;
1777;SDS011;71547;50.146;8.174;2023-12-04T06:04:41;12.20;;;7.82;;
1777;SDS011;71547;50.146;8.174;2023-12-04T06:07:10;16.25;;;8.82;;
1777;SDS011;71547;50.146;8.174;2023-12-04T06:09:37;12.50;;;7.30;;
1777;SDS011;71547;50.146;8.174;2023-12-04T06:12:05;13.70;;;7.90;;
1777;SDS011;71547;50.146;8.174;2023-12-04T06:14:35;13.88;;;7.68;;
1777;SDS011;71547;50.146;8.174;2023-12-04T06:17:02;11.85;;;7.65;;
1777;SDS011;71547;50.146;8.174;2023-12-04T06:19:31;9.95;;;7.05;;
1777;SDS011;71547;50.146;8.174;2023-12-04T06:21:59;13.10;;;8.15;;
1777;SDS011;71547;50.146;8.174;2023-12-04T06:24:27;14.63;;;8.00;;
1777;SDS011;71547;50.146;8.174;2023-12-04T06:26:56;9.88;;;6.57;;
1777;SDS011;71547;50.146;8.174;2023-12-04T06:29:24;12.98;;;7.25;;
1777;SDS011;71547;50.146;8.174;2023-12-04T06:31:52;10.80;;;6.40;;
1777;SDS011;71547;50.146;8.174;2023-12-04T06:34:21;11.48;;;7.53;;
1777;SDS011;71547;50.146;8.174;2023-12-04T06:36:49;14.63;;;7.90;;
1777;SDS011;71547;50.146;8.174;2023-12-04T06:39:17;15.80;;;8.60;;
1777;SDS011;71547;50.146;8.174;2023-12-04T06:41:46;10.77;;;6.82;;
1777;SDS011;71547;50.146;8.174;2023-12-04T06:44:15;12.20;;;7.22;;
1777;SDS011;71547;50.146;8.174;2023-12-04T06:46:43;11.70;;;7.75;;
1777;SDS011;71547;50.146;8.174;2023-12-04T06:49:18;10.20;;;7.32;;
1777;SDS011;71547;50.146;8.174;2023-12-04T06:51:46;11.82;;;7.57;;
1777;SDS011;71547;50.146;8.174;2023-12-04T06:54:13;14.10;;;7.85;;
1777;SDS011;71547;50.146;8.174;2023-12-04T06:56:40;9.75;;;6.07;;
1777;SDS011;71547;50.146;8.174;2023-12-04T06:59:08;10.55;;;6.07;;
1777;SDS011;71547;50.146;8.174;2023-12-04T07:01:35;11.23;;;7.80;;
1777;SDS011;71547;50.146;8.174;2023-12-04T07:04:03;10.75;;;6.88;;
1777;SDS011;71547;50.146;8.174;2023-12-04T07:06:36;8.65;;;6.55;;
1777;SDS011;71547;50.146;8.174;2023-12-04T07:09:04;6.38;;;5.10;;
1777;SDS011;71547;50.146;8.174;2023-12-04T07:11:33;7.40;;;6.20;;
1777;SDS011;71547;50.146;8.174;2023-12-04T07:14:00;8.30;;;5.85;;
1777;SDS011;71547;50.146;8.174;2023-12-04T07:16:29;8.85;;;6.35;;
1777;SDS011;71547;50.146;8.174;2023-12-04T07:18:56;6.72;;;5.78;;
1777;SDS011;71547;50.146;8.174;2023-12-04T07:21:24;7.88;;;5.43;;
1777;SDS011;71547;50.146;8.174;2023-12-04T07:23:52;9.55;;;5.88;;
1777;SDS011;71547;50.146;8.174;2023-12-04T07:26:19;6.57;;;5.07;;
1777;SDS011;71547;50.146;8.174;2023-12-04T07:28:46;8.38;;;6.03;;
1777;SDS011;71547;50.146;8.174;2023-12-04T07:31:13;11.20;;;6.15;;
1777;SDS011;71547;50.146;8.174;2023-12-04T07:33:42;8.68;;;5.95;;
1777;SDS011;71547;50.146;8.174;2023-12-04T07:36:10;8.48;;;6.00;;
1777;SDS011;71547;50.146;8.174;2023-12-04T07:38:37;11.32;;;6.78;;
1777;SDS011;71547;50.146;8.174;2023-12-04T07:41:05;8.82;;;4.95;;
1777;SDS011;71547;50.146;8.174;2023-12-04T07:43:32;7.63;;;5.45;;
1777;SDS011;71547;50.146;8.174;2023-12-04T07:46:00;13.15;;;8.20;;
1777;SDS011;71547;50.146;8.174;2023-12-04T07:48:27;8.95;;;6.43;;
1777;SDS011;71547;50.146;8.174;2023-12-04T07:50:58;8.32;;;6.15;;
1777;SDS011;71547;50.146;8.174;2023-12-04T07:53:25;10.73;;;7.10;;
1777;SDS011;71547;50.146;8.174;2023-12-04T07:55:53;9.15;;;5.97;;
1777;SDS011;71547;50.146;8.174;2023-12-04T07:58:20;7.88;;;5.80;;
1777;SDS011;71547;50.146;8.174;2023-12-04T08:00:47;11.52;;;7.63;;
1777;SDS011;71547;50.146;8.174;2023-12-04T08:03:14;10.80;;;6.78;;
1777;SDS011;71547;50.146;8.174;2023-12-04T08:05:42;7.78;;;5.72;;
1777;SDS011;71547;50.146;8.174;2023-12-04T08:08:10;14.48;;;6.95;;
1777;SDS011;71547;50.146;8.174;2023-12-04T08:10:37;10.88;;;6.78;;
1777;SDS011;71547;50.146;8.174;2023-12-04T08:13:04;14.18;;;7.60;;
1777;SDS011;71547;50.146;8.174;2023-12-04T08:15:31;9.40;;;7.13;;
1777;SDS011;71547;50.146;8.174;2023-12-04T08:17:58;10.32;;;7.25;;
1777;SDS011;71547;50.146;8.174;2023-12-04T08:20:26;13.95;;;8.50;;
1777;SDS011;71547;50.146;8.174;2023-12-04T08:23:05;11.70;;;6.90;;
1777;SDS011;71547;50.146;8.174;2023-12-04T08:25:34;13.25;;;8.15;;
1777;SDS011;71547;50.146;8.174;2023-12-04T08:28:03;9.77;;;6.90;;
1777;SDS011;71547;50.146;8.174;2023-12-04T08:30:30;11.98;;;7.53;;
1777;SDS011;71547;50.146;8.174;2023-12-04T08:32:57;12.13;;;7.75;;
1777;SDS011;71547;50.146;8.174;2023-12-04T08:35:24;9.13;;;7.00;;
1777;SDS011;71547;50.146;8.174;2023-12-04T08:37:51;16.40;;;7.68;;
1777;SDS011;71547;50.146;8.174;2023-12-04T08:40:21;13.13;;;8.70;;
1777;SDS011;71547;50.146;8.174;2023-12-04T08:43:07;13.35;;;8.63;;
1777;SDS011;71547;50.146;8.174;2023-12-04T08:45:52;11.98;;;7.65;;
1777;SDS011;71547;50.146;8.174;2023-12-04T08:48:19;9.80;;;7.18;;
1777;SDS011;71547;50.146;8.174;2023-12-04T08:50:46;14.75;;;7.60;;
1777;SDS011;71547;50.146;8.174;2023-12-04T08:53:13;11.00;;;7.18;;
1777;SDS011;71547;50.146;8.174;2023-12-04T08:55:40;11.30;;;7.07;;
1777;SDS011;71547;50.146;8.174;2023-12-04T08:58:09;14.07;;;8.40;;
1777;SDS011;71547;50.146;8.174;2023-12-04T09:00:37;11.77;;;7.00;;
1777;SDS011;71547;50.146;8.174;2023-12-04T09:03:09;9.85;;;7.50;;
1777;SDS011;71547;50.146;8.174;2023-12-04T09:05:51;13.80;;;8.32;;
1777;SDS011;71547;50.146;8.174;2023-12-04T09:08:19;12.40;;;7.70;;
1777;SDS011;71547;50.146;8.174;2023-12-04T09:11:02;11.85;;;7.63;;
1777;SDS011;71547;50.146;8.174;2023-12-04T09:13:49;15.07;;;8.07;;
1777;SDS011;71547;50.146;8.174;2023-12-04T09:16:16;13.00;;;7.72;;
1777;SDS011;71547;50.146;8.174;2023-12-04T09:18:43;13.35;;;8.80;;
1777;SDS011;71547;50.146;8.174;2023-12-04T09:21:11;13.50;;;8.88;;
1777;SDS011;71547;50.146;8.174;2023-12-04T09:23:38;13.43;;;8.32;;
1777;SDS011;71547;50.146;8.174;2023-12-04T09:26:05;12.00;;;8.05;;
1777;SDS011;71547;50.146;8.174;2023-12-04T09:28:32;11.50;;;7.97;;
1777;SDS011;71547;50.146;8.174;2023-12-04T09:31:03;13.82;;;9.10;;
1777;SDS011;71547;50.146;8.174;2023-12-04T09:33:30;16.83;;;10.85;;
1777;SDS011;71547;50.146;8.174;2023-12-04T09:35:57;16.20;;;9.73;;
1777;SDS011;71547;50.146;8.174;2023-12-04T09:38:24;16.27;;;10.02;;
1777;SDS011;71547;50.146;8.174;2023-12-04T09:40:52;18.23;;;9.15;;
1777;SDS011;71547;50.146;8.174;2023-12-04T09:43:19;15.95;;;9.82;;
1777;SDS011;71547;50.146;8.174;2023-12-04T09:45:47;12.02;;;8.70;;
1777;SDS011;71547;50.146;8.174;2023-12-04T09:48:15;14.77;;;9.50;;
1777;SDS011;71547;50.146;8.174;2023-12-04T09:50:43;14.50;;;9.77;;
1777;SDS011;71547;50.146;8.174;2023-12-04T09:53:13;13.32;;;8.77;;
1777;SDS011;71547;50.146;8.174;2023-12-04T09:55:40;14.13;;;9.80;;
1777;SDS011;71547;50.146;8.174;2023-12-04T09:58:07;16.70;;;9.23;;
1777;SDS011;71547;50.146;8.174;2023-12-04T10:00:36;11.63;;;8.60;;
1777;SDS011;71547;50.146;8.174;2023-12-04T10:03:04;17.23;;;10.43;;
1777;SDS011;71547;50.146;8.174;2023-12-04T10:05:32;16.98;;;10.18;;
1777;SDS011;71547;50.146;8.174;2023-12-04T10:08:00;13.00;;;8.75;;
1777;SDS011;71547;50.146;8.174;2023-12-04T10:10:27;16.15;;;10.55;;
1777;SDS011;71547;50.146;8.174;2023-12-04T10:12:54;23.63;;;11.15;;
1777;SDS011;71547;50.146;8.174;2023-12-04T10:15:21;16.65;;;10.27;;
1777;SDS011;71547;50.146;8.174;2023-12-04T10:17:48;16.33;;;10.13;;
1777;SDS011;71547;50.146;8.174;2023-12-04T10:20:16;16.48;;;10.75;;
1777;SDS011;71547;50.146;8.174;2023-12-04T10:22:55;14.43;;;9.18;;
1777;SDS011;71547;50.146;8.174;2023-12-04T10:25:27;20.90;;;10.45;;
1777;SDS011;71547;50.146;8.174;2023-12-04T10:28:06;12.55;;;8.23;;
1777;SDS011;71547;50.146;8.174;2023-12-04T10:30:35;14.38;;;8.95;;
1777;SDS011;71547;50.146;8.174;2023-12-04T10:33:03;10.98;;;7.25;;
1777;SDS011;71547;50.146;8.174;2023-12-04T10:35:32;14.27;;;8.23;;
1777;SDS011;71547;50.146;8.174;2023-12-04T10:38:04;15.15;;;9.63;;
1777;SDS011;71547;50.146;8.174;2023-12-04T10:40:33;13.68;;;9.48;;
1777;SDS011;71547;50.146;8.174;2023-12-04T10:43:09;16.88;;;9.70;;
1777;SDS011;71547;50.146;8.174;2023-12-04T10:45:41;13.82;;;8.30;;
1777;SDS011;71547;50.146;8.174;2023-12-04T10:48:10;17.20;;;10.65;;
1777;SDS011;71547;50.146;8.174;2023-12-04T10:50:39;17.10;;;9.75;;
1777;SDS011;71547;50.146;8.174;2023-12-04T10:53:10;16.85;;;9.52;;
1777;SDS011;71547;50.146;8.174;2023-12-04T10:55:39;14.75;;;9.32;;
1777;SDS011;71547;50.146;8.174;2023-12-04T10:58:08;19.85;;;13.05;;
1777;SDS011;71547;50.146;8.174;2023-12-04T11:00:38;13.40;;;8.82;;
1777;SDS011;71547;50.146;8.174;2023-12-04T11:03:09;20.05;;;9.80;;
1777;SDS011;71547;50.146;8.174;2023-12-04T11:05:41;16.88;;;9.23;;
1777;SDS011;71547;50.146;8.174;2023-12-04T11:08:11;19.88;;;9.50;;
1777;SDS011;71547;50.146;8.174;2023-12-04T11:10:45;16.27;;;9.95;;
1777;SDS011;71547;50.146;8.174;2023-12-04T11:13:21;12.68;;;9.18;;
1777;SDS011;71547;50.146;8.174;2023-12-04T11:15:55;16.52;;;9.35;;
1777;SDS011;71547;50.146;8.174;2023-12-04T11:18:30;19.65;;;11.10;;
1777;SDS011;71547;50.146;8.174;2023-12-04T11:21:05;14.38;;;10.10;;
1777;SDS011;71547;50.146;8.174;2023-12-04T11:23:36;14.30;;;10.18;;
1777;SDS011;71547;50.146;8.174;2023-12-04T11:26:05;16.20;;;9.05;;
1777;SDS011;71547;50.146;8.174;2023-12-04T11:28:34;15.00;;;9.20;;
1777;SDS011;71547;50.146;8.174;2023-12-04T11:31:05;14.05;;;8.98;;
1777;SDS011;71547;50.146;8.174;2023-12-04T11:33:34;14.45;;;9.27;;
1777;SDS011;71547;50.146;8.174;2023-12-04T11:36:06;13.15;;;9.70;;
1777;SDS011;71547;50.146;8.174;2023-12-04T11:38:43;12.60;;;8.63;;
1777;SDS011;71547;50.146;8.174;2023-12-04T11:41:15;14.88;;;9.85;;
1777;SDS011;71547;50.146;8.174;2023-12-04T11:43:50;15.82;;;9.02;;
1777;SDS011;71547;50.146;8.174;2023-12-04T11:46:19;11.90;;;9.15;;
1777;SDS011;71547;50.146;8.174;2023-12-04T11:48:48;14.52;;;9.45;;
1777;SDS011;71547;50.146;8.174;2023-12-04T11:54:18;14.38;;;8.85;;
1777;SDS011;71547;50.146;8.174;2023-12-04T11:56:59;14.90;;;9.45;;
1777;SDS011;71547;50.146;8.174;2023-12-04T11:59:48;16.23;;;8.63;;
1777;SDS011;71547;50.146;8.174;2023-12-04T12:02:16;12.35;;;8.50;;
1777;SDS011;71547;50.146;8.174;2023-12-04T12:04:45;10.77;;;8.32;;
1777;SDS011;71547;50.146;8.174;2023-12-04T12:07:13;13.82;;;9.18;;
1777;SDS011;71547;50.146;8.174;2023-12-04T12:09:42;15.48;;;9.13;;
1777;SDS011;71547;50.146;8.174;2023-12-04T12:12:10;12.88;;;8.68;;
1777;SDS011;71547;50.146;8.174;2023-12-04T12:14:38;11.35;;;8.07;;
1777;SDS011;71547;50.146;8.174;2023-12-04T12:17:05;14.43;;;8.82;;
1777;SDS011;71547;50.146;8.174;2023-12-04T12:19:33;18.25;;;9.32;;
1777;SDS011;71547;50.146;8.174;2023-12-04T12:22:01;15.20;;;8.65;;
1777;SDS011;71547;50.146;8.174;2023-12-04T12:24:29;12.70;;;8.35;;
1777;SDS011;71547;50.146;8.174;2023-12-04T12:26:58;12.32;;;8.60;;
1777;SDS011;71547;50.146;8.174;2023-12-04T12:29:25;11.98;;;8.10;;
1777;SDS011;71547;50.146;8.174;2023-12-04T12:31:53;13.82;;;7.72;;
1777;SDS011;71547;50.146;8.174;2023-12-04T12:34:23;14.18;;;9.02;;
1777;SDS011;71547;50.146;8.174;2023-12-04T12:36:50;15.95;;;8.52;;
1777;SDS011;71547;50.146;8.174;2023-12-04T12:39:18;15.82;;;8.80;;
1777;SDS011;71547;50.146;8.174;2023-12-04T12:41:47;14.55;;;10.02;;
1777;SDS011;71547;50.146;8.174;2023-12-04T12:44:17;13.48;;;8.13;;
1777;SDS011;71547;50.146;8.174;2023-12-04T12:46:46;16.27;;;9.65;;
1777;SDS011;71547;50.146;8.174;2023-12-04T12:49:16;17.95;;;9.95;;
1777;SDS011;71547;50.146;8.174;2023-12-04T12:52:01;15.20;;;9.40;;
1777;SDS011;71547;50.146;8.174;2023-12-04T12:54:46;12.15;;;8.45;;
1777;SDS011;71547;50.146;8.174;2023-12-04T12:57:14;12.55;;;9.13;;
1777;SDS011;71547;50.146;8.174;2023-12-04T12:59:43;12.82;;;8.30;;
1777;SDS011;71547;50.146;8.174;2023-12-04T13:02:10;16.02;;;9.38;;
1777;SDS011;71547;50.146;8.174;2023-12-04T13:04:38;18.63;;;9.65;;
1777;SDS011;71547;50.146;8.174;2023-12-04T13:07:08;13.18;;;9.20;;
1777;SDS011;71547;50.146;8.174;2023-12-04T13:09:35;20.42;;;10.45;;
1777;SDS011;71547;50.146;8.174;2023-12-04T13:12:03;17.83;;;9.88;;
1777;SDS011;71547;50.146;8.174;2023-12-04T13:14:31;12.23;;;8.63;;
1777;SDS011;71547;50.146;8.174;2023-12-04T13:17:03;17.65;;;10.40;;
1777;SDS011;71547;50.146;8.174;2023-12-04T13:19:31;15.00;;;10.10;;
1777;SDS011;71547;50.146;8.174;2023-12-04T13:22:00;15.07;;;10.25;;
1777;SDS011;71547;50.146;8.174;2023-12-04T13:24:28;13.77;;;9.15;;
1777;SDS011;71547;50.146;8.174;2023-12-04T13:26:55;14.63;;;9.23;;
1777;SDS011;71547;50.146;8.174;2023-12-04T13:29:23;13.82;;;9.15;;
1777;SDS011;71547;50.146;8.174;2023-12-04T13:31:50;14.07;;;9.77;;
1777;SDS011;71547;50.146;8.174;2023-12-04T13:34:19;14.10;;;9.38;;
1777;SDS011;71547;50.146;8.174;2023-12-04T13:36:46;16.52;;;9.55;;
1777;SDS011;71547;50.146;8.174;2023-12-04T13:39:13;16.35;;;9.93;;
1777;SDS011;71547;50.146;8.174;2023-12-04T13:41:46;14.35;;;9.55;;
1777;SDS011;71547;50.146;8.174;2023-12-04T13:44:32;17.02;;;9.27;;
1777;SDS011;71547;50.146;8.174;2023-12-04T13:47:02;17.15;;;8.93;;
1777;SDS011;71547;50.146;8.174;2023-12-04T13:49:31;13.68;;;10.02;;
1777;SDS011;71547;50.146;8.174;2023-12-04T13:51:59;15.65;;;10.65;;
1777;SDS011;71547;50.146;8.174;2023-12-04T13:54:26;13.32;;;9.18;;
1777;SDS011;71547;50.146;8.174;2023-12-04T13:57:09;14.38;;;9.35;;
1777;SDS011;71547;50.146;8.174;2023-12-04T13:59:45;13.93;;;9.25;;
1777;SDS011;71547;50.146;8.174;2023-12-04T14:02:12;14.00;;;9.30;;
1777;SDS011;71547;50.146;8.174;2023-12-04T14:04:42;15.20;;;9.15;;
1777;SDS011;71547;50.146;8.174;2023-12-04T14:07:09;16.50;;;9.77;;
1777;SDS011;71547;50.146;8.174;2023-12-04T14:09:39;15.90;;;8.98;;
1777;SDS011;71547;50.146;8.174;2023-12-04T14:12:07;16.25;;;9.95;;
1777;SDS011;71547;50.146;8.174;2023-12-04T14:14:35;13.38;;;7.70;;
1777;SDS011;71547;50.146;8.174;2023-12-04T14:17:03;12.73;;;8.05;;
1777;SDS011;71547;50.146;8.174;2023-12-04T14:19:32;16.83;;;10.02;;
1777;SDS011;71547;50.146;8.174;2023-12-04T14:22:00;15.32;;;9.25;;
1777;SDS011;71547;50.146;8.174;2023-12-04T14:24:28;14.90;;;9.10;;
1777;SDS011;71547;50.146;8.174;2023-12-04T14:26:56;13.45;;;9.20;;
1777;SDS011;71547;50.146;8.174;2023-12-04T14:29:24;16.40;;;9.40;;
1777;SDS011;71547;50.146;8.174;2023-12-04T14:31:51;15.82;;;9.30;;
1777;SDS011;71547;50.146;8.174;2023-12-04T14:34:18;14.15;;;8.50;;
1777;SDS011;71547;50.146;8.174;2023-12-04T14:36:45;14.38;;;8.85;;
1777;SDS011;71547;50.146;8.174;2023-12-04T14:39:14;14.60;;;8.68;;
1777;SDS011;71547;50.146;8.174;2023-12-04T14:41:43;13.15;;;9.20;;
1777;SDS011;71547;50.146;8.174;2023-12-04T14:44:11;13.77;;;8.60;;
1777;SDS011;71547;50.146;8.174;2023-12-04T14:46:38;11.45;;;6.90;;
1777;SDS011;71547;50.146;8.174;2023-12-04T14:49:05;11.50;;;8.30;;
1777;SDS011;71547;50.146;8.174;2023-12-04T14:51:32;13.05;;;8.93;;
1777;SDS011;71547;50.146;8.174;2023-12-04T14:54:02;13.05;;;9.32;;
1777;SDS011;71547;50.146;8.174;2023-12-04T14:56:50;10.82;;;7.95;;